Shiguaigou, China
Current Conditions -  °F | °C
As of 5:00 PM on Tuesday 21 Oct 2014 (Local Time) from ZBHH Reporting Station
Clear Clear  
Wind Chill: 63°   Ceiling: Unl
Heat Index: 63°   Visibility: 6mi
Dew Point: 32°   Wind: 7mph
Humidity: 32%   Direction: 220°SW
Pressure: 30.12"   Gusts: NA
Location:  40.71°N, 110.29°E
Report Text: ZBHH 210900Z 22003MPS CAVOK 17/M00 Q1020 NOSIG
Loading
Personal Weather Stations






























Interactive Weather Map
Tropical Storm Tracking
New forecast layout! Learn more

10-Day Weather Forecast

Advertisements
Track Severe Weather on mobile